sensor_id;sensor_type;location;lat;lon;timestamp;P1;durP1;ratioP1;P2;durP2;ratioP2
41927;SDS011;27616;51.420;6.788;2023-03-05T00:00:09;9.77;;;1.67;;
41927;SDS011;27616;51.420;6.788;2023-03-05T00:02:40;11.57;;;2.13;;
41927;SDS011;27616;51.420;6.788;2023-03-05T00:05:06;14.00;;;2.13;;
41927;SDS011;27616;51.420;6.788;2023-03-05T00:07:33;14.37;;;2.43;;
41927;SDS011;27616;51.420;6.788;2023-03-05T00:09:59;10.97;;;2.83;;
41927;SDS011;27616;51.420;6.788;2023-03-05T00:12:26;10.80;;;1.83;;
41927;SDS011;27616;51.420;6.788;2023-03-05T00:14:52;12.87;;;2.03;;
41927;SDS011;27616;51.420;6.788;2023-03-05T00:17:17;12.77;;;2.50;;
41927;SDS011;27616;51.420;6.788;2023-03-05T00:19:43;11.00;;;3.03;;
41927;SDS011;27616;51.420;6.788;2023-03-05T00:22:09;11.33;;;2.20;;
41927;SDS011;27616;51.420;6.788;2023-03-05T00:24:34;12.50;;;1.97;;
41927;SDS011;27616;51.420;6.788;2023-03-05T00:27:00;10.00;;;1.97;;
41927;SDS011;27616;51.420;6.788;2023-03-05T00:29:26;11.43;;;2.03;;
41927;SDS011;27616;51.420;6.788;2023-03-05T00:31:52;11.63;;;2.20;;
41927;SDS011;27616;51.420;6.788;2023-03-05T00:34:18;11.77;;;2.17;;
41927;SDS011;27616;51.420;6.788;2023-03-05T00:36:48;14.20;;;2.30;;
41927;SDS011;27616;51.420;6.788;2023-03-05T00:39:16;14.90;;;2.80;;
41927;SDS011;27616;51.420;6.788;2023-03-05T00:41:43;10.40;;;2.30;;
41927;SDS011;27616;51.420;6.788;2023-03-05T00:44:10;13.23;;;2.20;;
41927;SDS011;27616;51.420;6.788;2023-03-05T00:46:36;10.20;;;1.90;;
41927;SDS011;27616;51.420;6.788;2023-03-05T00:49:02;11.67;;;2.80;;
41927;SDS011;27616;51.420;6.788;2023-03-05T00:51:28;15.63;;;2.23;;
41927;SDS011;27616;51.420;6.788;2023-03-05T00:53:54;13.73;;;2.47;;
41927;SDS011;27616;51.420;6.788;2023-03-05T00:56:20;13.60;;;2.40;;
41927;SDS011;27616;51.420;6.788;2023-03-05T00:58:46;13.37;;;2.50;;
41927;SDS011;27616;51.420;6.788;2023-03-05T01:01:13;10.13;;;2.10;;
41927;SDS011;27616;51.420;6.788;2023-03-05T01:03:38;11.43;;;2.37;;
41927;SDS011;27616;51.420;6.788;2023-03-05T01:06:06;11.20;;;2.43;;
41927;SDS011;27616;51.420;6.788;2023-03-05T01:08:34;11.68;;;2.35;;
41927;SDS011;27616;51.420;6.788;2023-03-05T01:11:01;10.70;;;2.20;;
41927;SDS011;27616;51.420;6.788;2023-03-05T01:13:28;9.30;;;2.00;;
41927;SDS011;27616;51.420;6.788;2023-03-05T01:15:54;13.43;;;2.10;;
41927;SDS011;27616;51.420;6.788;2023-03-05T01:18:20;11.50;;;2.23;;
41927;SDS011;27616;51.420;6.788;2023-03-05T01:20:46;16.23;;;2.67;;
41927;SDS011;27616;51.420;6.788;2023-03-05T01:23:12;12.73;;;2.23;;
41927;SDS011;27616;51.420;6.788;2023-03-05T01:25:38;13.07;;;2.40;;
41927;SDS011;27616;51.420;6.788;2023-03-05T01:28:04;9.97;;;2.33;;
41927;SDS011;27616;51.420;6.788;2023-03-05T01:30:31;12.67;;;2.73;;
41927;SDS011;27616;51.420;6.788;2023-03-05T01:32:57;9.60;;;2.40;;
41927;SDS011;27616;51.420;6.788;2023-03-05T01:35:23;9.83;;;2.50;;
41927;SDS011;27616;51.420;6.788;2023-03-05T01:37:50;13.03;;;2.30;;
41927;SDS011;27616;51.420;6.788;2023-03-05T01:43:07;15.97;;;3.30;;
41927;SDS011;27616;51.420;6.788;2023-03-05T01:48:37;13.17;;;2.50;;
41927;SDS011;27616;51.420;6.788;2023-03-05T01:51:05;13.07;;;2.63;;
41927;SDS011;27616;51.420;6.788;2023-03-05T01:53:31;15.13;;;2.97;;
41927;SDS011;27616;51.420;6.788;2023-03-05T01:55:57;16.70;;;2.93;;
41927;SDS011;27616;51.420;6.788;2023-03-05T01:58:23;11.57;;;3.43;;
41927;SDS011;27616;51.420;6.788;2023-03-05T02:00:51;15.53;;;2.67;;
41927;SDS011;27616;51.420;6.788;2023-03-05T02:03:18;15.50;;;3.20;;
41927;SDS011;27616;51.420;6.788;2023-03-05T02:05:46;12.13;;;2.87;;
41927;SDS011;27616;51.420;6.788;2023-03-05T02:08:15;13.63;;;3.07;;
41927;SDS011;27616;51.420;6.788;2023-03-05T02:13:14;15.53;;;2.63;;
41927;SDS011;27616;51.420;6.788;2023-03-05T02:15:43;16.17;;;3.70;;
41927;SDS011;27616;51.420;6.788;2023-03-05T02:18:11;12.90;;;2.80;;
41927;SDS011;27616;51.420;6.788;2023-03-05T02:20:51;12.70;;;3.17;;
41927;SDS011;27616;51.420;6.788;2023-03-05T02:23:20;14.17;;;3.47;;
41927;SDS011;27616;51.420;6.788;2023-03-05T02:25:51;12.17;;;3.23;;
41927;SDS011;27616;51.420;6.788;2023-03-05T02:28:28;13.13;;;3.03;;
41927;SDS011;27616;51.420;6.788;2023-03-05T02:31:16;16.77;;;3.40;;
41927;SDS011;27616;51.420;6.788;2023-03-05T02:33:43;12.90;;;3.03;;
41927;SDS011;27616;51.420;6.788;2023-03-05T02:36:10;12.30;;;2.70;;
41927;SDS011;27616;51.420;6.788;2023-03-05T02:38:36;13.03;;;3.80;;
41927;SDS011;27616;51.420;6.788;2023-03-05T02:41:03;13.30;;;3.23;;
41927;SDS011;27616;51.420;6.788;2023-03-05T02:43:29;16.47;;;3.13;;
41927;SDS011;27616;51.420;6.788;2023-03-05T02:45:55;12.50;;;2.70;;
41927;SDS011;27616;51.420;6.788;2023-03-05T02:48:20;17.47;;;3.13;;
41927;SDS011;27616;51.420;6.788;2023-03-05T02:50:46;7.80;;;2.03;;
41927;SDS011;27616;51.420;6.788;2023-03-05T02:53:13;12.93;;;2.43;;
41927;SDS011;27616;51.420;6.788;2023-03-05T02:55:39;12.73;;;2.30;;
41927;SDS011;27616;51.420;6.788;2023-03-05T02:58:05;9.37;;;2.40;;
41927;SDS011;27616;51.420;6.788;2023-03-05T03:00:31;13.20;;;2.77;;
41927;SDS011;27616;51.420;6.788;2023-03-05T03:02:57;13.30;;;2.70;;
41927;SDS011;27616;51.420;6.788;2023-03-05T03:05:22;14.77;;;2.83;;
41927;SDS011;27616;51.420;6.788;2023-03-05T03:07:48;14.67;;;3.07;;
41927;SDS011;27616;51.420;6.788;2023-03-05T03:10:14;11.50;;;2.43;;
41927;SDS011;27616;51.420;6.788;2023-03-05T03:12:41;13.07;;;2.80;;
41927;SDS011;27616;51.420;6.788;2023-03-05T03:15:08;14.43;;;2.60;;
41927;SDS011;27616;51.420;6.788;2023-03-05T03:17:36;15.93;;;3.40;;
41927;SDS011;27616;51.420;6.788;2023-03-05T03:20:06;14.30;;;3.53;;
41927;SDS011;27616;51.420;6.788;2023-03-05T03:22:33;16.17;;;3.50;;
41927;SDS011;27616;51.420;6.788;2023-03-05T03:24:59;12.87;;;3.00;;
41927;SDS011;27616;51.420;6.788;2023-03-05T03:27:26;10.67;;;2.63;;
41927;SDS011;27616;51.420;6.788;2023-03-05T03:29:51;21.67;;;3.90;;
41927;SDS011;27616;51.420;6.788;2023-03-05T03:32:17;15.83;;;4.27;;
41927;SDS011;27616;51.420;6.788;2023-03-05T03:34:43;17.73;;;4.37;;
41927;SDS011;27616;51.420;6.788;2023-03-05T03:37:09;14.33;;;3.57;;
41927;SDS011;27616;51.420;6.788;2023-03-05T03:39:35;15.10;;;3.00;;
41927;SDS011;27616;51.420;6.788;2023-03-05T03:42:00;15.10;;;3.13;;
41927;SDS011;27616;51.420;6.788;2023-03-05T03:44:26;15.93;;;3.23;;
41927;SDS011;27616;51.420;6.788;2023-03-05T03:46:52;12.83;;;3.20;;
41927;SDS011;27616;51.420;6.788;2023-03-05T03:49:20;11.23;;;2.40;;
41927;SDS011;27616;51.420;6.788;2023-03-05T03:51:47;13.65;;;2.97;;
41927;SDS011;27616;51.420;6.788;2023-03-05T03:54:15;15.73;;;3.17;;
41927;SDS011;27616;51.420;6.788;2023-03-05T03:56:42;18.30;;;2.93;;
41927;SDS011;27616;51.420;6.788;2023-03-05T03:59:08;12.03;;;2.40;;
41927;SDS011;27616;51.420;6.788;2023-03-05T04:01:34;12.63;;;2.43;;
41927;SDS011;27616;51.420;6.788;2023-03-05T04:04:00;17.17;;;3.23;;
41927;SDS011;27616;51.420;6.788;2023-03-05T04:06:26;11.53;;;3.23;;
41927;SDS011;27616;51.420;6.788;2023-03-05T04:08:52;13.30;;;3.33;;
41927;SDS011;27616;51.420;6.788;2023-03-05T04:11:18;14.00;;;3.37;;
41927;SDS011;27616;51.420;6.788;2023-03-05T04:13:44;14.87;;;3.30;;
41927;SDS011;27616;51.420;6.788;2023-03-05T04:16:10;15.47;;;3.10;;
41927;SDS011;27616;51.420;6.788;2023-03-05T04:18:37;13.07;;;2.90;;
41927;SDS011;27616;51.420;6.788;2023-03-05T04:21:03;11.67;;;3.17;;
41927;SDS011;27616;51.420;6.788;2023-03-05T04:23:29;13.37;;;3.47;;
41927;SDS011;27616;51.420;6.788;2023-03-05T04:25:55;15.23;;;2.87;;
41927;SDS011;27616;51.420;6.788;2023-03-05T04:28:21;16.13;;;3.20;;
41927;SDS011;27616;51.420;6.788;2023-03-05T04:30:47;13.10;;;3.03;;
41927;SDS011;27616;51.420;6.788;2023-03-05T04:33:13;12.03;;;3.00;;
41927;SDS011;27616;51.420;6.788;2023-03-05T04:35:39;11.57;;;2.47;;
41927;SDS011;27616;51.420;6.788;2023-03-05T04:38:04;13.23;;;2.70;;
41927;SDS011;27616;51.420;6.788;2023-03-05T04:40:30;10.13;;;2.37;;
41927;SDS011;27616;51.420;6.788;2023-03-05T04:42:56;11.37;;;2.33;;
41927;SDS011;27616;51.420;6.788;2023-03-05T04:45:22;12.50;;;2.37;;
41927;SDS011;27616;51.420;6.788;2023-03-05T04:47:48;10.30;;;2.37;;
41927;SDS011;27616;51.420;6.788;2023-03-05T04:50:13;11.20;;;2.40;;
41927;SDS011;27616;51.420;6.788;2023-03-05T04:52:40;12.03;;;2.50;;
41927;SDS011;27616;51.420;6.788;2023-03-05T04:55:07;10.63;;;2.87;;
41927;SDS011;27616;51.420;6.788;2023-03-05T04:57:34;9.07;;;2.40;;
41927;SDS011;27616;51.420;6.788;2023-03-05T05:00:00;12.70;;;2.23;;
41927;SDS011;27616;51.420;6.788;2023-03-05T05:02:26;9.83;;;2.27;;
41927;SDS011;27616;51.420;6.788;2023-03-05T05:04:52;11.87;;;2.43;;
41927;SDS011;27616;51.420;6.788;2023-03-05T05:07:18;12.03;;;2.47;;
41927;SDS011;27616;51.420;6.788;2023-03-05T05:09:45;10.87;;;3.00;;
41927;SDS011;27616;51.420;6.788;2023-03-05T05:12:10;13.80;;;2.50;;
41927;SDS011;27616;51.420;6.788;2023-03-05T05:14:36;11.77;;;2.30;;
41927;SDS011;27616;51.420;6.788;2023-03-05T05:17:02;9.13;;;2.53;;
41927;SDS011;27616;51.420;6.788;2023-03-05T05:19:32;10.70;;;2.80;;
41927;SDS011;27616;51.420;6.788;2023-03-05T05:21:59;12.73;;;2.43;;
41927;SDS011;27616;51.420;6.788;2023-03-05T05:24:25;8.67;;;2.00;;
41927;SDS011;27616;51.420;6.788;2023-03-05T05:26:52;9.83;;;2.50;;
41927;SDS011;27616;51.420;6.788;2023-03-05T05:29:19;5.57;;;1.67;;
41927;SDS011;27616;51.420;6.788;2023-03-05T05:31:45;11.63;;;2.47;;
41927;SDS011;27616;51.420;6.788;2023-03-05T05:34:11;9.57;;;2.13;;
41927;SDS011;27616;51.420;6.788;2023-03-05T05:36:36;8.27;;;2.10;;
41927;SDS011;27616;51.420;6.788;2023-03-05T05:39:02;9.03;;;2.20;;
41927;SDS011;27616;51.420;6.788;2023-03-05T05:41:28;11.30;;;2.20;;
41927;SDS011;27616;51.420;6.788;2023-03-05T05:43:54;12.70;;;2.23;;
41927;SDS011;27616;51.420;6.788;2023-03-05T05:46:20;12.93;;;2.50;;
41927;SDS011;27616;51.420;6.788;2023-03-05T05:48:46;13.70;;;2.10;;
41927;SDS011;27616;51.420;6.788;2023-03-05T05:51:19;11.23;;;2.70;;
41927;SDS011;27616;51.420;6.788;2023-03-05T05:53:46;14.20;;;2.70;;
41927;SDS011;27616;51.420;6.788;2023-03-05T05:56:12;14.47;;;2.80;;
41927;SDS011;27616;51.420;6.788;2023-03-05T05:58:40;12.00;;;2.63;;
41927;SDS011;27616;51.420;6.788;2023-03-05T06:01:11;11.50;;;2.70;;
41927;SDS011;27616;51.420;6.788;2023-03-05T06:03:37;12.23;;;2.97;;
41927;SDS011;27616;51.420;6.788;2023-03-05T06:06:06;11.13;;;2.67;;
41927;SDS011;27616;51.420;6.788;2023-03-05T06:08:34;13.47;;;3.20;;
41927;SDS011;27616;51.420;6.788;2023-03-05T06:10:59;11.60;;;2.70;;
41927;SDS011;27616;51.420;6.788;2023-03-05T06:13:25;10.50;;;2.80;;
41927;SDS011;27616;51.420;6.788;2023-03-05T06:15:58;11.33;;;2.67;;
41927;SDS011;27616;51.420;6.788;2023-03-05T06:18:25;10.13;;;2.80;;
41927;SDS011;27616;51.420;6.788;2023-03-05T06:20:57;14.53;;;2.90;;
41927;SDS011;27616;51.420;6.788;2023-03-05T06:23:25;10.80;;;2.47;;
41927;SDS011;27616;51.420;6.788;2023-03-05T06:25:52;10.90;;;2.60;;
41927;SDS011;27616;51.420;6.788;2023-03-05T06:28:18;8.77;;;2.50;;
41927;SDS011;27616;51.420;6.788;2023-03-05T06:30:44;11.23;;;2.60;;
41927;SDS011;27616;51.420;6.788;2023-03-05T06:33:10;13.37;;;2.90;;
41927;SDS011;27616;51.420;6.788;2023-03-05T06:35:37;15.57;;;3.60;;
41927;SDS011;27616;51.420;6.788;2023-03-05T06:38:06;10.13;;;2.60;;
41927;SDS011;27616;51.420;6.788;2023-03-05T06:40:32;10.67;;;3.07;;
41927;SDS011;27616;51.420;6.788;2023-03-05T06:42:58;10.37;;;3.50;;
41927;SDS011;27616;51.420;6.788;2023-03-05T06:45:24;13.53;;;3.00;;
41927;SDS011;27616;51.420;6.788;2023-03-05T06:47:50;11.47;;;3.10;;
41927;SDS011;27616;51.420;6.788;2023-03-05T06:50:16;12.77;;;3.30;;
41927;SDS011;27616;51.420;6.788;2023-03-05T06:52:42;15.00;;;3.30;;
41927;SDS011;27616;51.420;6.788;2023-03-05T06:55:08;13.53;;;3.40;;
41927;SDS011;27616;51.420;6.788;2023-03-05T06:57:35;13.10;;;3.27;;
41927;SDS011;27616;51.420;6.788;2023-03-05T07:00:01;10.90;;;3.07;;
41927;SDS011;27616;51.420;6.788;2023-03-05T07:02:35;12.23;;;3.10;;
41927;SDS011;27616;51.420;6.788;2023-03-05T07:05:01;11.83;;;3.30;;
41927;SDS011;27616;51.420;6.788;2023-03-05T07:07:27;16.90;;;3.30;;
41927;SDS011;27616;51.420;6.788;2023-03-05T07:09:53;13.67;;;4.20;;
41927;SDS011;27616;51.420;6.788;2023-03-05T07:12:18;14.40;;;3.20;;
41927;SDS011;27616;51.420;6.788;2023-03-05T07:14:44;14.17;;;3.97;;
41927;SDS011;27616;51.420;6.788;2023-03-05T07:17:10;10.07;;;2.87;;
41927;SDS011;27616;51.420;6.788;2023-03-05T07:19:36;14.47;;;3.87;;
41927;SDS011;27616;51.420;6.788;2023-03-05T07:22:04;8.77;;;2.77;;
41927;SDS011;27616;51.420;6.788;2023-03-05T07:24:31;15.53;;;3.73;;
41927;SDS011;27616;51.420;6.788;2023-03-05T07:26:56;11.20;;;4.00;;
41927;SDS011;27616;51.420;6.788;2023-03-05T07:29:23;11.07;;;3.60;;
41927;SDS011;27616;51.420;6.788;2023-03-05T07:31:49;10.43;;;3.20;;
41927;SDS011;27616;51.420;6.788;2023-03-05T07:34:15;10.20;;;3.40;;
41927;SDS011;27616;51.420;6.788;2023-03-05T07:36:41;11.57;;;3.33;;
41927;SDS011;27616;51.420;6.788;2023-03-05T07:39:07;10.03;;;3.20;;
41927;SDS011;27616;51.420;6.788;2023-03-05T07:41:34;13.27;;;3.37;;
41927;SDS011;27616;51.420;6.788;2023-03-05T07:43:59;10.37;;;3.50;;
41927;SDS011;27616;51.420;6.788;2023-03-05T07:46:27;11.17;;;3.50;;
41927;SDS011;27616;51.420;6.788;2023-03-05T07:48:54;10.93;;;3.33;;
41927;SDS011;27616;51.420;6.788;2023-03-05T07:51:20;17.10;;;4.00;;
41927;SDS011;27616;51.420;6.788;2023-03-05T07:53:47;12.20;;;3.37;;
41927;SDS011;27616;51.420;6.788;2023-03-05T07:56:48;7.93;;;3.70;;
41927;SDS011;27616;51.420;6.788;2023-03-05T07:59:07;8.23;;;2.93;;
41927;SDS011;27616;51.420;6.788;2023-03-05T08:01:35;14.32;;;3.50;;
41927;SDS011;27616;51.420;6.788;2023-03-05T08:04:02;15.93;;;3.20;;
41927;SDS011;27616;51.420;6.788;2023-03-05T08:06:29;16.83;;;4.00;;
41927;SDS011;27616;51.420;6.788;2023-03-05T08:08:56;9.93;;;3.53;;
41927;SDS011;27616;51.420;6.788;2023-03-05T08:11:22;17.10;;;3.50;;
41927;SDS011;27616;51.420;6.788;2023-03-05T08:13:48;14.60;;;4.27;;
41927;SDS011;27616;51.420;6.788;2023-03-05T08:16:15;14.57;;;4.07;;
41927;SDS011;27616;51.420;6.788;2023-03-05T08:18:43;11.20;;;3.83;;
41927;SDS011;27616;51.420;6.788;2023-03-05T08:21:17;12.40;;;3.87;;
41927;SDS011;27616;51.420;6.788;2023-03-05T08:23:51;15.17;;;3.90;;
41927;SDS011;27616;51.420;6.788;2023-03-05T08:26:19;18.20;;;4.00;;
41927;SDS011;27616;51.420;6.788;2023-03-05T08:28:46;17.47;;;3.50;;
41927;SDS011;27616;51.420;6.788;2023-03-05T08:31:13;17.23;;;4.17;;
41927;SDS011;27616;51.420;6.788;2023-03-05T08:33:41;14.87;;;3.73;;
41927;SDS011;27616;51.420;6.788;2023-03-05T08:36:07;16.53;;;3.70;;
41927;SDS011;27616;51.420;6.788;2023-03-05T08:38:33;11.83;;;3.73;;
41927;SDS011;27616;51.420;6.788;2023-03-05T08:41:00;14.23;;;3.73;;
41927;SDS011;27616;51.420;6.788;2023-03-05T08:43:26;12.57;;;4.37;;
41927;SDS011;27616;51.420;6.788;2023-03-05T08:45:52;16.10;;;5.33;;
41927;SDS011;27616;51.420;6.788;2023-03-05T08:48:18;16.47;;;4.63;;
41927;SDS011;27616;51.420;6.788;2023-03-05T08:50:44;15.60;;;5.20;;
41927;SDS011;27616;51.420;6.788;2023-03-05T08:53:10;14.87;;;4.80;;
41927;SDS011;27616;51.420;6.788;2023-03-05T08:55:36;15.67;;;5.13;;
41927;SDS011;27616;51.420;6.788;2023-03-05T08:58:02;17.13;;;5.40;;
41927;SDS011;27616;51.420;6.788;2023-03-05T09:00:28;16.77;;;6.80;;
41927;SDS011;27616;51.420;6.788;2023-03-05T09:02:54;16.47;;;7.07;;
41927;SDS011;27616;51.420;6.788;2023-03-05T09:05:19;16.80;;;6.73;;
41927;SDS011;27616;51.420;6.788;2023-03-05T09:07:45;17.33;;;5.90;;
41927;SDS011;27616;51.420;6.788;2023-03-05T09:10:11;14.97;;;6.47;;
41927;SDS011;27616;51.420;6.788;2023-03-05T09:12:39;22.13;;;6.50;;
41927;SDS011;27616;51.420;6.788;2023-03-05T09:15:05;17.93;;;7.17;;
41927;SDS011;27616;51.420;6.788;2023-03-05T09:17:33;18.37;;;6.70;;
41927;SDS011;27616;51.420;6.788;2023-03-05T09:19:59;18.90;;;7.50;;
41927;SDS011;27616;51.420;6.788;2023-03-05T09:22:26;17.63;;;7.43;;
41927;SDS011;27616;51.420;6.788;2023-03-05T09:24:52;25.20;;;7.37;;
41927;SDS011;27616;51.420;6.788;2023-03-05T09:27:18;16.03;;;6.40;;
41927;SDS011;27616;51.420;6.788;2023-03-05T09:29:44;15.93;;;5.17;;
41927;SDS011;27616;51.420;6.788;2023-03-05T09:32:09;18.90;;;6.30;;
41927;SDS011;27616;51.420;6.788;2023-03-05T09:34:35;17.60;;;5.87;;
41927;SDS011;27616;51.420;6.788;2023-03-05T09:37:01;23.27;;;8.97;;
41927;SDS011;27616;51.420;6.788;2023-03-05T09:39:27;14.37;;;6.10;;
41927;SDS011;27616;51.420;6.788;2023-03-05T09:42:06;15.27;;;5.73;;
41927;SDS011;27616;51.420;6.788;2023-03-05T09:55:51;18.10;;;7.13;;
41927;SDS011;27616;51.420;6.788;2023-03-05T10:01:00;20.03;;;8.77;;
41927;SDS011;27616;51.420;6.788;2023-03-05T10:03:48;25.27;;;8.30;;
41927;SDS011;27616;51.420;6.788;2023-03-05T10:06:22;18.97;;;7.63;;
41927;SDS011;27616;51.420;6.788;2023-03-05T10:13:47;14.80;;;6.17;;
41927;SDS011;27616;51.420;6.788;2023-03-05T10:19:45;13.40;;;6.00;;
41927;SDS011;27616;51.420;6.788;2023-03-05T10:28:03;17.17;;;6.30;;
41927;SDS011;27616;51.420;6.788;2023-03-05T10:36:32;9.90;;;4.83;;
41927;SDS011;27616;51.420;6.788;2023-03-05T10:44:55;11.33;;;5.20;;
41927;SDS011;27616;51.420;6.788;2023-03-05T10:47:30;13.93;;;5.00;;
41927;SDS011;27616;51.420;6.788;2023-03-05T10:50:14;9.67;;;4.57;;
41927;SDS011;27616;51.420;6.788;2023-03-05T10:52:53;10.93;;;4.40;;
41927;SDS011;27616;51.420;6.788;2023-03-05T10:55:46;10.20;;;3.92;;
41927;SDS011;27616;51.420;6.788;2023-03-05T10:58:13;8.23;;;3.50;;
41927;SDS011;27616;51.420;6.788;2023-03-05T11:00:56;6.47;;;3.47;;
41927;SDS011;27616;51.420;6.788;2023-03-05T11:03:35;6.97;;;3.57;;
41927;SDS011;27616;51.420;6.788;2023-03-05T11:06:10;5.43;;;3.13;;
41927;SDS011;27616;51.420;6.788;2023-03-05T11:08:36;10.43;;;3.90;;
41927;SDS011;27616;51.420;6.788;2023-03-05T11:13:49;7.43;;;3.60;;
41927;SDS011;27616;51.420;6.788;2023-03-05T11:17:20;8.23;;;3.40;;
41927;SDS011;27616;51.420;6.788;2023-03-05T11:19:16;12.80;;;4.10;;
41927;SDS011;27616;51.420;6.788;2023-03-05T11:30:00;11.83;;;4.63;;
41927;SDS011;27616;51.420;6.788;2023-03-05T11:32:27;9.60;;;5.27;;
41927;SDS011;27616;51.420;6.788;2023-03-05T11:34:54;7.73;;;4.07;;
41927;SDS011;27616;51.420;6.788;2023-03-05T11:37:22;14.97;;;4.97;;
41927;SDS011;27616;51.420;6.788;2023-03-05T11:40:04;13.70;;;6.55;;
41927;SDS011;27616;51.420;6.788;2023-03-05T11:42:39;9.37;;;3.40;;
41927;SDS011;27616;51.420;6.788;2023-03-05T11:45:06;10.07;;;3.53;;
41927;SDS011;27616;51.420;6.788;2023-03-05T11:52:46;7.83;;;3.53;;
41927;SDS011;27616;51.420;6.788;2023-03-05T11:55:16;6.73;;;3.13;;
41927;SDS011;27616;51.420;6.788;2023-03-05T12:00:31;7.83;;;3.37;;
41927;SDS011;27616;51.420;6.788;2023-03-05T12:03:01;8.03;;;3.50;;
41927;SDS011;27616;51.420;6.788;2023-03-05T12:05:32;7.53;;;3.33;;
41927;SDS011;27616;51.420;6.788;2023-03-05T12:08:00;8.40;;;2.70;;
41927;SDS011;27616;51.420;6.788;2023-03-05T12:10:27;6.70;;;2.50;;
41927;SDS011;27616;51.420;6.788;2023-03-05T12:13:02;4.60;;;2.13;;
41927;SDS011;27616;51.420;6.788;2023-03-05T12:23:55;5.33;;;2.13;;
41927;SDS011;27616;51.420;6.788;2023-03-05T12:27:30;5.70;;;2.27;;
41927;SDS011;27616;51.420;6.788;2023-03-05T12:31:57;10.07;;;4.15;;
41927;SDS011;27616;51.420;6.788;2023-03-05T12:37:13;8.87;;;3.53;;
41927;SDS011;27616;51.420;6.788;2023-03-05T12:40:12;13.27;;;5.80;;
41927;SDS011;27616;51.420;6.788;2023-03-05T12:42:45;9.60;;;4.80;;
41927;SDS011;27616;51.420;6.788;2023-03-05T12:45:22;8.87;;;2.63;;
41927;SDS011;27616;51.420;6.788;2023-03-05T12:55:28;5.70;;;2.33;;
41927;SDS011;27616;51.420;6.788;2023-03-05T12:58:10;8.60;;;2.60;;
41927;SDS011;27616;51.420;6.788;2023-03-05T13:00:50;6.87;;;2.73;;
41927;SDS011;27616;51.420;6.788;2023-03-05T13:03:24;6.13;;;2.93;;
41927;SDS011;27616;51.420;6.788;2023-03-05T13:05:55;8.60;;;3.77;;
41927;SDS011;27616;51.420;6.788;2023-03-05T13:10:56;6.37;;;2.67;;
41927;SDS011;27616;51.420;6.788;2023-03-05T13:13:26;4.90;;;1.80;;
41927;SDS011;27616;51.420;6.788;2023-03-05T13:18:27;6.13;;;2.27;;
41927;SDS011;27616;51.420;6.788;2023-03-05T13:21:10;4.73;;;1.70;;
41927;SDS011;27616;51.420;6.788;2023-03-05T13:23:44;4.87;;;1.90;;
41927;SDS011;27616;51.420;6.788;2023-03-05T13:26:17;3.70;;;2.00;;
41927;SDS011;27616;51.420;6.788;2023-03-05T13:29:01;4.00;;;1.70;;
41927;SDS011;27616;51.420;6.788;2023-03-05T13:31:27;5.27;;;2.00;;
41927;SDS011;27616;51.420;6.788;2023-03-05T13:33:55;6.47;;;2.43;;
41927;SDS011;27616;51.420;6.788;2023-03-05T13:36:31;10.07;;;3.30;;
41927;SDS011;27616;51.420;6.788;2023-03-05T13:38:57;5.43;;;2.03;;
41927;SDS011;27616;51.420;6.788;2023-03-05T13:41:27;8.77;;;3.70;;
41927;SDS011;27616;51.420;6.788;2023-03-05T13:43:57;6.78;;;3.03;;
41927;SDS011;27616;51.420;6.788;2023-03-05T13:46:26;5.73;;;2.63;;
41927;SDS011;27616;51.420;6.788;2023-03-05T13:48:52;16.37;;;7.77;;
41927;SDS011;27616;51.420;6.788;2023-03-05T13:51:18;9.50;;;4.23;;
41927;SDS011;27616;51.420;6.788;2023-03-05T13:53:44;11.70;;;4.53;;
41927;SDS011;27616;51.420;6.788;2023-03-05T13:56:14;9.60;;;3.60;;
41927;SDS011;27616;51.420;6.788;2023-03-05T14:03:48;4.63;;;2.37;;
41927;SDS011;27616;51.420;6.788;2023-03-05T14:06:16;7.30;;;2.70;;
41927;SDS011;27616;51.420;6.788;2023-03-05T14:08:48;5.82;;;2.90;;
41927;SDS011;27616;51.420;6.788;2023-03-05T14:11:26;5.83;;;2.50;;
41927;SDS011;27616;51.420;6.788;2023-03-05T14:13:57;7.17;;;3.10;;
41927;SDS011;27616;51.420;6.788;2023-03-05T14:16:29;5.53;;;2.73;;
41927;SDS011;27616;51.420;6.788;2023-03-05T14:18:59;7.00;;;2.63;;
41927;SDS011;27616;51.420;6.788;2023-03-05T14:21:47;6.23;;;2.97;;
41927;SDS011;27616;51.420;6.788;2023-03-05T14:24:21;5.87;;;2.60;;
41927;SDS011;27616;51.420;6.788;2023-03-05T14:26:53;6.03;;;2.90;;
41927;SDS011;27616;51.420;6.788;2023-03-05T14:29:24;5.37;;;2.97;;
41927;SDS011;27616;51.420;6.788;2023-03-05T14:34:29;6.97;;;3.50;;
41927;SDS011;27616;51.420;6.788;2023-03-05T14:37:03;6.77;;;3.00;;
41927;SDS011;27616;51.420;6.788;2023-03-05T14:39:50;4.47;;;2.30;;
41927;SDS011;27616;51.420;6.788;2023-03-05T14:44:53;4.38;;;2.33;;
41927;SDS011;27616;51.420;6.788;2023-03-05T14:47:20;4.43;;;2.30;;
41927;SDS011;27616;51.420;6.788;2023-03-05T14:49:49;4.03;;;2.47;;
41927;SDS011;27616;51.420;6.788;2023-03-05T14:52:16;3.37;;;2.13;;
41927;SDS011;27616;51.420;6.788;2023-03-05T14:54:43;4.80;;;2.40;;
41927;SDS011;27616;51.420;6.788;2023-03-05T14:57:14;4.70;;;2.70;;
41927;SDS011;27616;51.420;6.788;2023-03-05T14:59:43;6.53;;;3.03;;
41927;SDS011;27616;51.420;6.788;2023-03-05T15:02:17;5.90;;;2.87;;
41927;SDS011;27616;51.420;6.788;2023-03-05T15:04:47;4.40;;;2.70;;
41927;SDS011;27616;51.420;6.788;2023-03-05T15:09:51;5.87;;;3.00;;
41927;SDS011;27616;51.420;6.788;2023-03-05T15:12:16;4.93;;;2.90;;
41927;SDS011;27616;51.420;6.788;2023-03-05T15:14:43;6.03;;;2.93;;
41927;SDS011;27616;51.420;6.788;2023-03-05T15:17:11;11.97;;;5.83;;
41927;SDS011;27616;51.420;6.788;2023-03-05T15:19:40;6.17;;;3.17;;
41927;SDS011;27616;51.420;6.788;2023-03-05T15:22:08;4.50;;;2.87;;
41927;SDS011;27616;51.420;6.788;2023-03-05T15:24:35;5.97;;;3.08;;
41927;SDS011;27616;51.420;6.788;2023-03-05T15:27:01;6.17;;;3.63;;
41927;SDS011;27616;51.420;6.788;2023-03-05T15:29:27;4.57;;;2.60;;
41927;SDS011;27616;51.420;6.788;2023-03-05T15:31:53;6.23;;;2.87;;
41927;SDS011;27616;51.420;6.788;2023-03-05T15:34:19;4.50;;;2.70;;
41927;SDS011;27616;51.420;6.788;2023-03-05T15:36:45;5.80;;;2.70;;
41927;SDS011;27616;51.420;6.788;2023-03-05T15:39:10;5.60;;;2.43;;
41927;SDS011;27616;51.420;6.788;2023-03-05T15:41:36;3.97;;;2.13;;
41927;SDS011;27616;51.420;6.788;2023-03-05T15:44:02;5.87;;;2.63;;
41927;SDS011;27616;51.420;6.788;2023-03-05T15:46:27;3.70;;;2.37;;
41927;SDS011;27616;51.420;6.788;2023-03-05T15:48:53;5.97;;;2.63;;
41927;SDS011;27616;51.420;6.788;2023-03-05T15:51:19;4.53;;;2.40;;
41927;SDS011;27616;51.420;6.788;2023-03-05T15:53:45;5.90;;;2.53;;
41927;SDS011;27616;51.420;6.788;2023-03-05T15:56:17;3.37;;;2.20;;
41927;SDS011;27616;51.420;6.788;2023-03-05T15:58:43;5.73;;;2.23;;
41927;SDS011;27616;51.420;6.788;2023-03-05T16:01:10;3.97;;;2.47;;
41927;SDS011;27616;51.420;6.788;2023-03-05T16:03:36;5.93;;;2.63;;
41927;SDS011;27616;51.420;6.788;2023-03-05T16:06:03;4.60;;;2.47;;
41927;SDS011;27616;51.420;6.788;2023-03-05T16:08:30;5.87;;;2.43;;
41927;SDS011;27616;51.420;6.788;2023-03-05T16:10:57;7.53;;;3.47;;
41927;SDS011;27616;51.420;6.788;2023-03-05T16:13:24;4.53;;;2.50;;
41927;SDS011;27616;51.420;6.788;2023-03-05T16:15:53;7.60;;;2.85;;
41927;SDS011;27616;51.420;6.788;2023-03-05T16:18:19;5.63;;;2.47;;
41927;SDS011;27616;51.420;6.788;2023-03-05T16:20:46;5.20;;;2.50;;
41927;SDS011;27616;51.420;6.788;2023-03-05T16:23:12;4.60;;;2.67;;
41927;SDS011;27616;51.420;6.788;2023-03-05T16:25:38;6.73;;;2.67;;
41927;SDS011;27616;51.420;6.788;2023-03-05T16:28:04;4.53;;;2.50;;
41927;SDS011;27616;51.420;6.788;2023-03-05T16:30:30;5.77;;;3.00;;